sensor_id;sensor_type;location;lat;lon;timestamp;pressure;altitude;pressure_sealevel;temperature;humidity
62420;BME280;48460;51.616;5.426;2022-10-16T00:01:17;100976.47;;;12.04;100.00
62420;BME280;48460;51.616;5.426;2022-10-16T00:03:58;100982.00;;;12.00;100.00
62420;BME280;48460;51.616;5.426;2022-10-16T00:06:47;100970.69;;;11.98;100.00
62420;BME280;48460;51.616;5.426;2022-10-16T00:09:18;100971.63;;;11.97;100.00
62420;BME280;48460;51.616;5.426;2022-10-16T00:11:46;100972.72;;;11.93;100.00
62420;BME280;48460;51.616;5.426;2022-10-16T00:14:23;100973.00;;;11.88;100.00
62420;BME280;48460;51.616;5.426;2022-10-16T00:16:52;100964.38;;;11.84;100.00
62420;BME280;48460;51.616;5.426;2022-10-16T00:19:59;100979.28;;;11.85;100.00
62420;BME280;48460;51.616;5.426;2022-10-16T00:22:30;100979.22;;;11.87;100.00
62420;BME280;48460;51.616;5.426;2022-10-16T00:24:58;100973.06;;;11.86;100.00
62420;BME280;48460;51.616;5.426;2022-10-16T00:27:36;100970.41;;;11.86;100.00
62420;BME280;48460;51.616;5.426;2022-10-16T00:30:07;100966.03;;;11.87;100.00
62420;BME280;48460;51.616;5.426;2022-10-16T00:32:38;100975.69;;;11.86;100.00
62420;BME280;48460;51.616;5.426;2022-10-16T00:35:07;100964.44;;;11.83;100.00
62420;BME280;48460;51.616;5.426;2022-10-16T00:37:32;100976.94;;;11.79;100.00
62420;BME280;48460;51.616;5.426;2022-10-16T00:40:07;100968.25;;;11.77;100.00
62420;BME280;48460;51.616;5.426;2022-10-16T00:43:00;100976.94;;;11.79;100.00
62420;BME280;48460;51.616;5.426;2022-10-16T00:45:50;100980.59;;;11.77;100.00
62420;BME280;48460;51.616;5.426;2022-10-16T00:48:22;100983.41;;;11.74;100.00
62420;BME280;48460;51.616;5.426;2022-10-16T00:50:52;100980.94;;;11.71;100.00
62420;BME280;48460;51.616;5.426;2022-10-16T00:53:26;100989.78;;;11.70;100.00
62420;BME280;48460;51.616;5.426;2022-10-16T00:56:07;100987.22;;;11.68;100.00
62420;BME280;48460;51.616;5.426;2022-10-16T00:58:47;100982.09;;;11.65;100.00
62420;BME280;48460;51.616;5.426;2022-10-16T01:01:16;100983.22;;;11.61;100.00
62420;BME280;48460;51.616;5.426;2022-10-16T01:03:41;100979.91;;;11.57;100.00
62420;BME280;48460;51.616;5.426;2022-10-16T01:09:23;100969.38;;;11.57;100.00
62420;BME280;48460;51.616;5.426;2022-10-16T01:11:55;100973.59;;;11.60;100.00
62420;BME280;48460;51.616;5.426;2022-10-16T01:14:30;100977.44;;;11.54;100.00
62420;BME280;48460;51.616;5.426;2022-10-16T01:17:08;100966.81;;;11.56;100.00
62420;BME280;48460;51.616;5.426;2022-10-16T01:28:38;100985.19;;;11.57;100.00
62420;BME280;48460;51.616;5.426;2022-10-16T01:31:17;100979.13;;;11.55;100.00
62420;BME280;48460;51.616;5.426;2022-10-16T01:34:16;100977.28;;;11.57;100.00
62420;BME280;48460;51.616;5.426;2022-10-16T01:36:56;100979.75;;;11.60;100.00
62420;BME280;48460;51.616;5.426;2022-10-16T01:39:37;100980.50;;;11.62;100.00
62420;BME280;48460;51.616;5.426;2022-10-16T01:42:19;100984.00;;;11.63;100.00
62420;BME280;48460;51.616;5.426;2022-10-16T01:44:54;100983.22;;;11.61;100.00
62420;BME280;48460;51.616;5.426;2022-10-16T01:47:32;100990.19;;;11.62;100.00
62420;BME280;48460;51.616;5.426;2022-10-16T01:50:15;100987.66;;;11.60;100.00
62420;BME280;48460;51.616;5.426;2022-10-16T01:53:05;100976.34;;;11.58;100.00
62420;BME280;48460;51.616;5.426;2022-10-16T01:55:42;100983.38;;;11.58;100.00
62420;BME280;48460;51.616;5.426;2022-10-16T01:58:31;100981.66;;;11.57;100.00
62420;BME280;48460;51.616;5.426;2022-10-16T02:01:15;100970.97;;;11.60;100.00
62420;BME280;48460;51.616;5.426;2022-10-16T02:03:46;100986.69;;;11.61;100.00
62420;BME280;48460;51.616;5.426;2022-10-16T02:06:19;100992.91;;;11.60;100.00
62420;BME280;48460;51.616;5.426;2022-10-16T02:09:06;100986.53;;;11.64;100.00
62420;BME280;48460;51.616;5.426;2022-10-16T02:11:43;100993.50;;;11.66;100.00
62420;BME280;48460;51.616;5.426;2022-10-16T02:31:11;100986.94;;;11.57;100.00
62420;BME280;48460;51.616;5.426;2022-10-16T02:33:40;100987.88;;;11.56;100.00
62420;BME280;48460;51.616;5.426;2022-10-16T02:36:10;100992.63;;;11.49;100.00
62420;BME280;48460;51.616;5.426;2022-10-16T02:38:37;100988.47;;;11.45;100.00
62420;BME280;48460;51.616;5.426;2022-10-16T02:41:04;100999.06;;;11.44;100.00
62420;BME280;48460;51.616;5.426;2022-10-16T02:43:37;101009.66;;;11.42;100.00
62420;BME280;48460;51.616;5.426;2022-10-16T02:46:10;101007.91;;;11.43;100.00
62420;BME280;48460;51.616;5.426;2022-10-16T02:48:39;100999.22;;;11.40;100.00
62420;BME280;48460;51.616;5.426;2022-10-16T02:51:15;100992.44;;;11.36;100.00
62420;BME280;48460;51.616;5.426;2022-10-16T02:53:48;100991.66;;;11.34;100.00
62420;BME280;48460;51.616;5.426;2022-10-16T02:56:17;100995.31;;;11.32;100.00
62420;BME280;48460;51.616;5.426;2022-10-16T02:58:49;100988.50;;;11.28;100.00
62420;BME280;48460;51.616;5.426;2022-10-16T03:01:34;100981.78;;;11.22;100.00
62420;BME280;48460;51.616;5.426;2022-10-16T03:04:05;100987.88;;;11.23;100.00
62420;BME280;48460;51.616;5.426;2022-10-16T03:06:42;100981.00;;;11.20;100.00
62420;BME280;48460;51.616;5.426;2022-10-16T03:09:10;100991.47;;;11.22;100.00
62420;BME280;48460;51.616;5.426;2022-10-16T03:11:36;100999.25;;;11.23;100.00
62420;BME280;48460;51.616;5.426;2022-10-16T03:14:02;100987.22;;;11.19;100.00
62420;BME280;48460;51.616;5.426;2022-10-16T03:16:30;100995.94;;;11.20;100.00
62420;BME280;48460;51.616;5.426;2022-10-16T03:18:59;100996.78;;;11.20;100.00
62420;BME280;48460;51.616;5.426;2022-10-16T03:21:29;101006.53;;;11.18;100.00
62420;BME280;48460;51.616;5.426;2022-10-16T03:24:10;101014.28;;;11.21;100.00
62420;BME280;48460;51.616;5.426;2022-10-16T03:26:41;101013.44;;;11.21;100.00
62420;BME280;48460;51.616;5.426;2022-10-16T03:29:07;101022.34;;;11.18;100.00
62420;BME280;48460;51.616;5.426;2022-10-16T03:31:35;101029.47;;;11.16;100.00
62420;BME280;48460;51.616;5.426;2022-10-16T03:34:01;101033.97;;;11.14;100.00
62420;BME280;48460;51.616;5.426;2022-10-16T03:36:29;101021.75;;;11.13;100.00
62420;BME280;48460;51.616;5.426;2022-10-16T03:38:54;101033.97;;;11.14;100.00
62420;BME280;48460;51.616;5.426;2022-10-16T03:41:31;101026.91;;;11.14;100.00
62420;BME280;48460;51.616;5.426;2022-10-16T03:44:02;101013.69;;;11.16;100.00
62420;BME280;48460;51.616;5.426;2022-10-16T03:46:45;101019.81;;;11.16;100.00
62420;BME280;48460;51.616;5.426;2022-10-16T03:49:30;101029.31;;;11.19;100.00
62420;BME280;48460;51.616;5.426;2022-10-16T03:52:06;101023.06;;;11.22;100.00
62420;BME280;48460;51.616;5.426;2022-10-16T03:54:40;101033.66;;;11.20;100.00
62420;BME280;48460;51.616;5.426;2022-10-16T03:57:13;101044.81;;;11.25;100.00
62420;BME280;48460;51.616;5.426;2022-10-16T03:59:48;101030.78;;;11.25;100.00
62420;BME280;48460;51.616;5.426;2022-10-16T04:04:56;101037.97;;;11.21;100.00
62420;BME280;48460;51.616;5.426;2022-10-16T04:07:27;101043.94;;;11.25;100.00
62420;BME280;48460;51.616;5.426;2022-10-16T04:10:02;101044.66;;;11.28;100.00
62420;BME280;48460;51.616;5.426;2022-10-16T04:12:38;101042.91;;;11.27;100.00
62420;BME280;48460;51.616;5.426;2022-10-16T04:15:15;101049.22;;;11.25;100.00
62420;BME280;48460;51.616;5.426;2022-10-16T04:17:51;101051.75;;;11.26;100.00
62420;BME280;48460;51.616;5.426;2022-10-16T04:20:27;101057.88;;;11.27;100.00
62420;BME280;48460;51.616;5.426;2022-10-16T04:23:05;101050.97;;;11.24;100.00
62420;BME280;48460;51.616;5.426;2022-10-16T04:28:32;101054.66;;;11.22;100.00
62420;BME280;48460;51.616;5.426;2022-10-16T04:31:06;101051.06;;;11.23;100.00
62420;BME280;48460;51.616;5.426;2022-10-16T04:33:36;101046.34;;;11.29;100.00
62420;BME280;48460;51.616;5.426;2022-10-16T04:36:03;101050.97;;;11.24;100.00
62420;BME280;48460;51.616;5.426;2022-10-16T04:38:31;101052.00;;;11.22;100.00
62420;BME280;48460;51.616;5.426;2022-10-16T04:41:03;101057.28;;;11.22;100.00
62420;BME280;48460;51.616;5.426;2022-10-16T04:43:31;101061.75;;;11.20;100.00
62420;BME280;48460;51.616;5.426;2022-10-16T04:46:04;101060.97;;;11.17;100.00
62420;BME280;48460;51.616;5.426;2022-10-16T04:48:33;101063.53;;;11.19;100.00
62420;BME280;48460;51.616;5.426;2022-10-16T04:50:59;101067.25;;;11.15;100.00
62420;BME280;48460;51.616;5.426;2022-10-16T04:53:29;101077.03;;;11.13;100.00
62420;BME280;48460;51.616;5.426;2022-10-16T04:56:04;101078.88;;;11.11;100.00
62420;BME280;48460;51.616;5.426;2022-10-16T04:58:29;101087.44;;;11.14;100.00
62420;BME280;48460;51.616;5.426;2022-10-16T05:00:55;101089.56;;;11.08;100.00
62420;BME280;48460;51.616;5.426;2022-10-16T05:03:22;101093.19;;;11.05;100.00
62420;BME280;48460;51.616;5.426;2022-10-16T05:05:51;101098.69;;;11.01;100.00
62420;BME280;48460;51.616;5.426;2022-10-16T05:08:18;101104.09;;;10.98;100.00
62420;BME280;48460;51.616;5.426;2022-10-16T05:10:50;101098.84;;;10.98;100.00
62420;BME280;48460;51.616;5.426;2022-10-16T05:13:15;101097.28;;;10.93;100.00
62420;BME280;48460;51.616;5.426;2022-10-16T05:15:47;101096.50;;;10.91;100.00
62420;BME280;48460;51.616;5.426;2022-10-16T05:18:16;101090.47;;;10.89;100.00
62420;BME280;48460;51.616;5.426;2022-10-16T05:20:44;101100.84;;;10.92;100.00
62420;BME280;48460;51.616;5.426;2022-10-16T05:23:12;101102.78;;;10.89;100.00
62420;BME280;48460;51.616;5.426;2022-10-16T05:25:40;101108.94;;;10.88;100.00
62420;BME280;48460;51.616;5.426;2022-10-16T05:28:06;101110.88;;;10.84;100.00
62420;BME280;48460;51.616;5.426;2022-10-16T05:30:37;101126.75;;;10.83;100.00
62420;BME280;48460;51.616;5.426;2022-10-16T05:33:12;101128.38;;;10.85;100.00
62420;BME280;48460;51.616;5.426;2022-10-16T05:35:43;101135.56;;;10.82;100.00
62420;BME280;48460;51.616;5.426;2022-10-16T05:38:11;101135.72;;;10.79;100.00
62420;BME280;48460;51.616;5.426;2022-10-16T05:40:39;101144.53;;;10.78;100.00
62420;BME280;48460;51.616;5.426;2022-10-16T05:43:07;101149.84;;;10.76;100.00
62420;BME280;48460;51.616;5.426;2022-10-16T05:45:35;101158.59;;;10.77;100.00
62420;BME280;48460;51.616;5.426;2022-10-16T05:48:11;101164.72;;;10.77;100.00
62420;BME280;48460;51.616;5.426;2022-10-16T05:50:36;101159.47;;;10.77;100.00
62420;BME280;48460;51.616;5.426;2022-10-16T05:53:02;101170.84;;;10.78;100.00
62420;BME280;48460;51.616;5.426;2022-10-16T05:55:38;101177.00;;;10.77;100.00
62420;BME280;48460;51.616;5.426;2022-10-16T05:58:04;101183.28;;;10.74;100.00
62420;BME280;48460;51.616;5.426;2022-10-16T06:00:32;101186.84;;;10.73;100.00
62420;BME280;48460;51.616;5.426;2022-10-16T06:02:59;101192.88;;;10.75;100.00
62420;BME280;48460;51.616;5.426;2022-10-16T06:05:29;101203.41;;;10.75;100.00
62420;BME280;48460;51.616;5.426;2022-10-16T06:08:16;101190.44;;;10.70;100.00
62420;BME280;48460;51.616;5.426;2022-10-16T06:11:09;101198.34;;;10.70;100.00
62420;BME280;48460;51.616;5.426;2022-10-16T06:13:35;101198.34;;;10.70;100.00
62420;BME280;48460;51.616;5.426;2022-10-16T06:16:14;101199.38;;;10.68;100.00
62420;BME280;48460;51.616;5.426;2022-10-16T06:18:45;101213.28;;;10.70;100.00
62420;BME280;48460;51.616;5.426;2022-10-16T06:21:21;101213.22;;;10.71;100.00
62420;BME280;48460;51.616;5.426;2022-10-16T06:23:49;101215.84;;;10.71;100.00
62420;BME280;48460;51.616;5.426;2022-10-16T06:26:19;101219.34;;;10.72;100.00
62420;BME280;48460;51.616;5.426;2022-10-16T06:28:45;101224.44;;;10.75;100.00
62420;BME280;48460;51.616;5.426;2022-10-16T06:31:16;101221.88;;;10.73;100.00
62420;BME280;48460;51.616;5.426;2022-10-16T06:33:53;101233.19;;;10.76;100.00
62420;BME280;48460;51.616;5.426;2022-10-16T06:36:24;101227.00;;;10.77;100.00
62420;BME280;48460;51.616;5.426;2022-10-16T06:39:03;101236.53;;;10.79;100.00
62420;BME280;48460;51.616;5.426;2022-10-16T06:41:34;101242.56;;;10.81;100.00
62420;BME280;48460;51.616;5.426;2022-10-16T06:44:04;101236.38;;;10.82;100.00
62420;BME280;48460;51.616;5.426;2022-10-16T06:46:50;101248.34;;;10.89;100.00
62420;BME280;48460;51.616;5.426;2022-10-16T06:49:17;101252.66;;;10.90;100.00
62420;BME280;48460;51.616;5.426;2022-10-16T06:51:48;101266.34;;;10.99;100.00
62420;BME280;48460;51.616;5.426;2022-10-16T06:54:17;101257.16;;;11.07;100.00
62420;BME280;48460;51.616;5.426;2022-10-16T06:56:47;101251.50;;;11.15;100.00
62420;BME280;48460;51.616;5.426;2022-10-16T06:59:12;101260.59;;;11.27;100.00
62420;BME280;48460;51.616;5.426;2022-10-16T07:01:40;101269.69;;;11.38;100.00
62420;BME280;48460;51.616;5.426;2022-10-16T07:04:13;101279.84;;;11.46;100.00
62420;BME280;48460;51.616;5.426;2022-10-16T07:06:53;101278.47;;;11.56;100.00
62420;BME280;48460;51.616;5.426;2022-10-16T07:09:29;101280.59;;;11.67;100.00
62420;BME280;48460;51.616;5.426;2022-10-16T07:11:57;101279.28;;;11.76;100.00
62420;BME280;48460;51.616;5.426;2022-10-16T07:14:40;101289.28;;;11.86;100.00
62420;BME280;48460;51.616;5.426;2022-10-16T07:17:08;101283.50;;;11.97;100.00
62420;BME280;48460;51.616;5.426;2022-10-16T07:19:36;101287.50;;;12.04;100.00
62420;BME280;48460;51.616;5.426;2022-10-16T07:22:04;101295.13;;;12.11;100.00
62420;BME280;48460;51.616;5.426;2022-10-16T07:24:37;101303.56;;;12.17;100.00
62420;BME280;48460;51.616;5.426;2022-10-16T07:27:03;101308.75;;;12.19;100.00
62420;BME280;48460;51.616;5.426;2022-10-16T07:29:28;101323.56;;;12.21;100.00
62420;BME280;48460;51.616;5.426;2022-10-16T07:31:54;101323.41;;;12.24;100.00
62420;BME280;48460;51.616;5.426;2022-10-16T07:34:27;101325.91;;;12.27;100.00
62420;BME280;48460;51.616;5.426;2022-10-16T07:36:52;101333.59;;;12.32;100.00
62420;BME280;48460;51.616;5.426;2022-10-16T07:39:27;101326.19;;;12.39;100.00
62420;BME280;48460;51.616;5.426;2022-10-16T07:41:54;101320.59;;;12.45;100.00
62420;BME280;48460;51.616;5.426;2022-10-16T07:44:25;101330.84;;;12.51;100.00
62420;BME280;48460;51.616;5.426;2022-10-16T07:46:50;101333.94;;;12.59;100.00
62420;BME280;48460;51.616;5.426;2022-10-16T07:49:18;101344.78;;;12.70;100.00
62420;BME280;48460;51.616;5.426;2022-10-16T07:51:43;101343.44;;;12.79;100.00
62420;BME280;48460;51.616;5.426;2022-10-16T07:54:09;101350.94;;;12.87;100.00
62420;BME280;48460;51.616;5.426;2022-10-16T07:56:35;101354.97;;;12.94;100.00
62420;BME280;48460;51.616;5.426;2022-10-16T07:59:03;101353.69;;;13.01;100.00
62420;BME280;48460;51.616;5.426;2022-10-16T08:01:29;101354.63;;;13.00;100.00
62420;BME280;48460;51.616;5.426;2022-10-16T08:03:55;101354.53;;;13.02;100.00
62420;BME280;48460;51.616;5.426;2022-10-16T08:06:22;101352.75;;;13.02;100.00
62420;BME280;48460;51.616;5.426;2022-10-16T08:08:55;101361.69;;;12.99;100.00
62420;BME280;48460;51.616;5.426;2022-10-16T08:11:41;101375.59;;;13.03;100.00
62420;BME280;48460;51.616;5.426;2022-10-16T08:14:19;101391.44;;;13.03;100.00
62420;BME280;48460;51.616;5.426;2022-10-16T08:16:48;101393.47;;;13.14;100.00
62420;BME280;48460;51.616;5.426;2022-10-16T08:19:24;101398.84;;;13.30;100.00
62420;BME280;48460;51.616;5.426;2022-10-16T08:21:53;101402.00;;;13.52;100.00
62420;BME280;48460;51.616;5.426;2022-10-16T08:24:19;101411.91;;;13.80;100.00
62420;BME280;48460;51.616;5.426;2022-10-16T08:26:46;101400.53;;;13.94;100.00
62420;BME280;48460;51.616;5.426;2022-10-16T08:29:13;101406.72;;;14.25;100.00
62420;BME280;48460;51.616;5.426;2022-10-16T08:31:41;101396.97;;;14.55;100.00
62420;BME280;48460;51.616;5.426;2022-10-16T08:34:08;101414.84;;;14.66;100.00
62420;BME280;48460;51.616;5.426;2022-10-16T08:36:35;101417.59;;;14.65;100.00
62420;BME280;48460;51.616;5.426;2022-10-16T08:39:04;101413.16;;;14.65;100.00
62420;BME280;48460;51.616;5.426;2022-10-16T08:48:28;101430.31;;;14.88;100.00
62420;BME280;48460;51.616;5.426;2022-10-16T08:51:03;101431.94;;;14.91;100.00
62420;BME280;48460;51.616;5.426;2022-10-16T08:59:49;101437.09;;;14.78;100.00
62420;BME280;48460;51.616;5.426;2022-10-16T09:02:33;101438.91;;;14.77;100.00
62420;BME280;48460;51.616;5.426;2022-10-16T09:16:57;101458.41;;;14.91;100.00
62420;BME280;48460;51.616;5.426;2022-10-16T09:19:45;101452.75;;;14.97;100.00
62420;BME280;48460;51.616;5.426;2022-10-16T09:22:17;101455.47;;;14.95;100.00
62420;BME280;48460;51.616;5.426;2022-10-16T09:24:51;101467.09;;;14.93;100.00
62420;BME280;48460;51.616;5.426;2022-10-16T09:27:17;101470.31;;;14.98;100.00
62420;BME280;48460;51.616;5.426;2022-10-16T09:29:45;101469.09;;;15.03;100.00
62420;BME280;48460;51.616;5.426;2022-10-16T09:32:20;101467.97;;;15.08;100.00
62420;BME280;48460;51.616;5.426;2022-10-16T09:34:54;101474.13;;;15.22;100.00
62420;BME280;48460;51.616;5.426;2022-10-16T09:37:22;101476.50;;;15.27;100.00
62420;BME280;48460;51.616;5.426;2022-10-16T09:39:51;101479.44;;;15.37;99.69
62420;BME280;48460;51.616;5.426;2022-10-16T09:42:22;101479.91;;;15.43;98.37
62420;BME280;48460;51.616;5.426;2022-10-16T09:44:52;101472.81;;;15.44;97.62
62420;BME280;48460;51.616;5.426;2022-10-16T09:47:39;101466.38;;;15.48;99.78
62420;BME280;48460;51.616;5.426;2022-10-16T09:50:26;101475.16;;;15.48;98.77
62420;BME280;48460;51.616;5.426;2022-10-16T09:53:13;101491.72;;;15.52;97.02
62420;BME280;48460;51.616;5.426;2022-10-16T09:55:50;101479.25;;;15.54;98.53
62420;BME280;48460;51.616;5.426;2022-10-16T09:58:17;101480.47;;;15.63;97.02
62420;BME280;48460;51.616;5.426;2022-10-16T10:00:49;101486.06;;;15.72;97.18
62420;BME280;48460;51.616;5.426;2022-10-16T10:03:36;101492.00;;;15.90;97.78
62420;BME280;48460;51.616;5.426;2022-10-16T10:06:25;101483.63;;;15.97;95.72
62420;BME280;48460;51.616;5.426;2022-10-16T10:08:56;101481.84;;;15.97;96.50
62420;BME280;48460;51.616;5.426;2022-10-16T10:11:38;101484.75;;;16.07;95.93
62420;BME280;48460;51.616;5.426;2022-10-16T10:14:08;101489.06;;;16.22;95.55
62420;BME280;48460;51.616;5.426;2022-10-16T10:16:40;101488.03;;;16.25;93.55
62420;BME280;48460;51.616;5.426;2022-10-16T10:19:20;101491.00;;;16.33;93.13
62420;BME280;48460;51.616;5.426;2022-10-16T10:21:46;101491.06;;;16.46;91.00
62420;BME280;48460;51.616;5.426;2022-10-16T10:24:14;101500.41;;;16.78;88.93
62420;BME280;48460;51.616;5.426;2022-10-16T10:29:51;101499.13;;;17.73;85.64
62420;BME280;48460;51.616;5.426;2022-10-16T10:35:18;101508.75;;;19.30;77.10
62420;BME280;48460;51.616;5.426;2022-10-16T10:37:51;101514.84;;;19.54;74.88
62420;BME280;48460;51.616;5.426;2022-10-16T10:43:23;101514.34;;;20.06;69.21
62420;BME280;48460;51.616;5.426;2022-10-16T10:45:59;101516.16;;;20.37;69.11
62420;BME280;48460;51.616;5.426;2022-10-16T10:57:30;101512.66;;;19.82;68.80
62420;BME280;48460;51.616;5.426;2022-10-16T11:00:27;101525.50;;;19.99;66.02
62420;BME280;48460;51.616;5.426;2022-10-16T11:05:33;101529.44;;;20.92;62.20
62420;BME280;48460;51.616;5.426;2022-10-16T11:08:20;101532.25;;;21.11;60.55
62420;BME280;48460;51.616;5.426;2022-10-16T11:13:53;101524.53;;;20.76;65.07
62420;BME280;48460;51.616;5.426;2022-10-16T11:16:43;101527.81;;;20.80;65.88
62420;BME280;48460;51.616;5.426;2022-10-16T11:27:44;101522.13;;;23.14;54.16
62420;BME280;48460;51.616;5.426;2022-10-16T11:30:22;101516.69;;;22.77;52.74
62420;BME280;48460;51.616;5.426;2022-10-16T11:38:38;101527.00;;;21.52;59.09
62420;BME280;48460;51.616;5.426;2022-10-16T11:44:14;101536.44;;;21.56;58.48
62420;BME280;48460;51.616;5.426;2022-10-16T11:50:14;101533.03;;;23.50;54.44
62420;BME280;48460;51.616;5.426;2022-10-16T11:55:37;101541.66;;;23.91;48.87
62420;BME280;48460;51.616;5.426;2022-10-16T11:58:12;101550.91;;;24.06;47.45
62420;BME280;48460;51.616;5.426;2022-10-16T12:03:42;101548.56;;;24.39;49.48
62420;BME280;48460;51.616;5.426;2022-10-16T12:09:00;101535.63;;;24.52;46.17
62420;BME280;48460;51.616;5.426;2022-10-16T12:13:52;101536.09;;;24.20;45.46
62420;BME280;48460;51.616;5.426;2022-10-16T12:16:28;101535.53;;;24.62;45.69
62420;BME280;48460;51.616;5.426;2022-10-16T12:19:16;101554.19;;;24.99;44.78
62420;BME280;48460;51.616;5.426;2022-10-16T12:21:43;101556.88;;;25.17;44.33
62420;BME280;48460;51.616;5.426;2022-10-16T12:24:38;101558.88;;;24.97;46.67
62420;BME280;48460;51.616;5.426;2022-10-16T12:27:30;101562.28;;;24.63;47.90
62420;BME280;48460;51.616;5.426;2022-10-16T12:29:58;101548.81;;;24.27;45.86
62420;BME280;48460;51.616;5.426;2022-10-16T12:32:29;101542.72;;;24.97;45.65
62420;BME280;48460;51.616;5.426;2022-10-16T12:34:55;101545.59;;;24.77;44.68
62420;BME280;48460;51.616;5.426;2022-10-16T12:37:24;101545.91;;;25.71;45.13
62420;BME280;48460;51.616;5.426;2022-10-16T12:39:53;101553.06;;;25.88;43.23
62420;BME280;48460;51.616;5.426;2022-10-16T12:44:51;101546.03;;;25.69;41.37
62420;BME280;48460;51.616;5.426;2022-10-16T12:47:46;101540.69;;;24.73;44.69
62420;BME280;48460;51.616;5.426;2022-10-16T12:50:28;101546.00;;;23.74;47.74
62420;BME280;48460;51.616;5.426;2022-10-16T12:52:55;101545.75;;;23.01;47.82
62420;BME280;48460;51.616;5.426;2022-10-16T12:55:22;101538.13;;;22.38;49.85
62420;BME280;48460;51.616;5.426;2022-10-16T13:00:59;101538.97;;;22.38;50.72
62420;BME280;48460;51.616;5.426;2022-10-16T13:06:30;101550.06;;;21.43;53.58
62420;BME280;48460;51.616;5.426;2022-10-16T13:12:06;101541.00;;;21.13;55.62
62420;BME280;48460;51.616;5.426;2022-10-16T13:18:04;101546.50;;;21.64;54.07
62420;BME280;48460;51.616;5.426;2022-10-16T13:29:30;101543.19;;;23.93;44.70
62420;BME280;48460;51.616;5.426;2022-10-16T13:32:11;101546.97;;;23.73;45.80
62420;BME280;48460;51.616;5.426;2022-10-16T13:37:32;101558.44;;;24.48;45.68
62420;BME280;48460;51.616;5.426;2022-10-16T13:40:22;101563.25;;;24.80;44.39
62420;BME280;48460;51.616;5.426;2022-10-16T13:45:29;101567.97;;;24.78;43.14
62420;BME280;48460;51.616;5.426;2022-10-16T13:48:19;101559.75;;;24.44;44.21
62420;BME280;48460;51.616;5.426;2022-10-16T13:51:28;101556.34;;;23.12;47.25
62420;BME280;48460;51.616;5.426;2022-10-16T13:53:58;101559.72;;;21.96;48.35
62420;BME280;48460;51.616;5.426;2022-10-16T13:57:33;101562.28;;;21.15;51.81
62420;BME280;48460;51.616;5.426;2022-10-16T14:00:31;101559.72;;;20.92;55.18
62420;BME280;48460;51.616;5.426;2022-10-16T14:23:54;101558.59;;;21.16;52.90
62420;BME280;48460;51.616;5.426;2022-10-16T14:26:51;101556.09;;;20.50;55.05
62420;BME280;48460;51.616;5.426;2022-10-16T14:29:28;101556.31;;;20.03;56.25
62420;BME280;48460;51.616;5.426;2022-10-16T14:32:05;101564.59;;;19.89;57.95
62420;BME280;48460;51.616;5.426;2022-10-16T14:34:36;101570.66;;;19.69;58.83
62420;BME280;48460;51.616;5.426;2022-10-16T14:37:24;101568.59;;;19.84;60.36
62420;BME280;48460;51.616;5.426;2022-10-16T14:39:52;101553.78;;;19.68;61.00
62420;BME280;48460;51.616;5.426;2022-10-16T14:42:20;101554.66;;;19.80;60.87
62420;BME280;48460;51.616;5.426;2022-10-16T14:44:56;101542.16;;;19.69;60.36
62420;BME280;48460;51.616;5.426;2022-10-16T14:47:23;101541.53;;;19.66;61.91
62420;BME280;48460;51.616;5.426;2022-10-16T14:49:55;101539.97;;;19.63;62.72
62420;BME280;48460;51.616;5.426;2022-10-16T14:52:23;101547.09;;;19.63;61.92
62420;BME280;48460;51.616;5.426;2022-10-16T14:54:49;101538.88;;;19.66;63.25
62420;BME280;48460;51.616;5.426;2022-10-16T14:57:23;101546.13;;;19.52;63.11
62420;BME280;48460;51.616;5.426;2022-10-16T14:59:49;101550.03;;;19.48;63.47
62420;BME280;48460;51.616;5.426;2022-10-16T15:02:37;101538.38;;;19.49;64.47
62420;BME280;48460;51.616;5.426;2022-10-16T15:07:46;101532.78;;;19.64;64.51
62420;BME280;48460;51.616;5.426;2022-10-16T15:10:38;101536.44;;;19.51;67.25
62420;BME280;48460;51.616;5.426;2022-10-16T15:13:04;101550.22;;;19.45;65.85
62420;BME280;48460;51.616;5.426;2022-10-16T15:15:35;101537.97;;;19.20;67.03
62420;BME280;48460;51.616;5.426;2022-10-16T15:18:14;101546.09;;;19.19;67.89
62420;BME280;48460;51.616;5.426;2022-10-16T15:20:50;101542.06;;;19.24;68.31
62420;BME280;48460;51.616;5.426;2022-10-16T15:23:21;101543.66;;;19.16;67.87
62420;BME280;48460;51.616;5.426;2022-10-16T15:32:18;101551.69;;;18.80;71.22
62420;BME280;48460;51.616;5.426;2022-10-16T15:34:44;101542.72;;;18.81;70.20
62420;BME280;48460;51.616;5.426;2022-10-16T15:37:09;101545.00;;;18.75;72.00
62420;BME280;48460;51.616;5.426;2022-10-16T15:39:44;101549.41;;;18.87;72.12
62420;BME280;48460;51.616;5.426;2022-10-16T15:42:12;101555.81;;;18.84;73.64
62420;BME280;48460;51.616;5.426;2022-10-16T15:44:38;101548.56;;;18.86;73.95
62420;BME280;48460;51.616;5.426;2022-10-16T15:47:04;101556.66;;;18.85;74.22
62420;BME280;48460;51.616;5.426;2022-10-16T15:49:32;101541.41;;;18.87;72.27
62420;BME280;48460;51.616;5.426;2022-10-16T15:52:01;101528.91;;;18.87;71.19
62420;BME280;48460;51.616;5.426;2022-10-16T15:54:33;101544.41;;;18.82;71.87
62420;BME280;48460;51.616;5.426;2022-10-16T15:57:01;101539.59;;;18.63;72.49
62420;BME280;48460;51.616;5.426;2022-10-16T15:59:27;101538.22;;;18.58;71.86
62420;BME280;48460;51.616;5.426;2022-10-16T16:01:58;101538.59;;;18.53;71.87
62420;BME280;48460;51.616;5.426;2022-10-16T16:04:28;101553.47;;;18.32;73.42
62420;BME280;48460;51.616;5.426;2022-10-16T16:06:54;101551.47;;;18.22;74.13
62420;BME280;48460;51.616;5.426;2022-10-16T16:13:01;101541.81;;;18.21;75.17